createdAt,value
2023-03-22T00:00:15.223Z,10.96
2023-03-22T00:03:21.195Z,10.90
2023-03-22T00:06:23.771Z,10.72
2023-03-22T00:09:25.811Z,10.57
2023-03-22T00:12:27.857Z,10.77
2023-03-22T00:15:30.661Z,10.66
2023-03-22T00:18:33.087Z,10.88
2023-03-22T00:21:35.401Z,10.73
2023-03-22T00:24:37.998Z,10.85
2023-03-22T00:27:40.808Z,10.82
2023-03-22T00:30:51.048Z,10.64
2023-03-22T00:33:53.015Z,10.74
2023-03-22T00:36:56.412Z,10.48
2023-03-22T00:39:59.073Z,10.39
2023-03-22T00:43:01.148Z,10.46
2023-03-22T00:46:03.667Z,10.53
2023-03-22T00:49:05.813Z,10.41
2023-03-22T00:52:07.858Z,10.41
2023-03-22T00:55:10.219Z,10.56
2023-03-22T00:58:12.312Z,10.40
2023-03-22T01:01:14.996Z,10.22
2023-03-22T01:04:18.358Z,10.36
2023-03-22T01:07:21.564Z,10.37
2023-03-22T01:10:24.031Z,10.25
2023-03-22T01:13:26.219Z,10.23
2023-03-22T01:16:28.406Z,10.08
2023-03-22T01:19:31.370Z,10.21
2023-03-22T01:22:33.536Z,9.99
2023-03-22T01:25:35.825Z,9.95
2023-03-22T01:28:40.657Z,9.99
2023-03-22T01:31:43.342Z,9.83
2023-03-22T01:34:46.162Z,9.91
2023-03-22T01:37:48.276Z,10.06
2023-03-22T01:40:50.775Z,10.07
2023-03-22T01:44:09.432Z,9.96
2023-03-22T01:47:12.251Z,9.79
2023-03-22T01:50:17.223Z,9.82
2023-03-22T01:53:19.803Z,9.46
2023-03-22T01:56:25.649Z,9.81
2023-03-22T01:59:28.044Z,9.73
2023-03-22T02:02:31.037Z,9.73
2023-03-22T02:05:35.580Z,9.60
2023-03-22T02:08:37.720Z,9.77
2023-03-22T02:11:58.431Z,9.73
2023-03-22T02:15:27.950Z,9.85
2023-03-22T02:18:33.497Z,9.66
2023-03-22T02:22:10.120Z,9.71
2023-03-22T02:25:54.325Z,9.66
2023-03-22T02:29:22.336Z,9.60
2023-03-22T02:32:29.583Z,9.50
2023-03-22T02:35:46.538Z,9.68
2023-03-22T02:39:05.248Z,9.57
2023-03-22T02:42:35.691Z,9.60
2023-03-22T02:45:47.173Z,9.51
2023-03-22T02:49:07.945Z,9.62
2023-03-22T02:52:19.623Z,9.64
2023-03-22T02:55:31.818Z,9.52
2023-03-22T02:58:39.483Z,9.62
2023-03-22T03:01:55.143Z,9.52
2023-03-22T03:04:58.174Z,9.76
2023-03-22T03:08:02.806Z,9.89
2023-03-22T03:11:04.965Z,10.01
2023-03-22T03:14:07.068Z,10.08
2023-03-22T03:17:34.157Z,9.64
2023-03-22T03:20:55.478Z,9.43
2023-03-22T03:24:21.664Z,9.66
2023-03-22T03:27:36.687Z,9.84
2023-03-22T03:31:25.009Z,9.64
2023-03-22T03:34:36.237Z,9.41
2023-03-22T03:37:44.039Z,9.58
2023-03-22T03:40:50.495Z,9.68
2023-03-22T03:43:58.105Z,9.48
2023-03-22T03:47:03.355Z,9.52
2023-03-22T03:50:06.483Z,9.57
2023-03-22T03:53:09.992Z,9.55
2023-03-22T03:56:12.111Z,9.56
2023-03-22T03:59:16.426Z,9.60
2023-03-22T04:02:19.105Z,9.79
2023-03-22T04:05:22.027Z,9.58
2023-03-22T04:08:24.048Z,9.69
2023-03-22T04:11:28.422Z,9.71
2023-03-22T04:14:38.207Z,9.92
2023-03-22T04:17:41.759Z,9.27
2023-03-22T04:20:47.387Z,9.08
2023-03-22T04:23:52.664Z,9.34
2023-03-22T04:26:56.735Z,9.20
2023-03-22T04:30:01.117Z,9.36
2023-03-22T04:33:07.184Z,9.49
2023-03-22T04:36:17.601Z,9.50
2023-03-22T04:39:22.305Z,9.53
2023-03-22T04:42:26.377Z,9.63
2023-03-22T04:45:34.632Z,9.44
2023-03-22T04:48:38.124Z,9.49
2023-03-22T04:51:42.449Z,9.52
2023-03-22T04:54:44.621Z,9.13
2023-03-22T04:57:49.651Z,9.24
2023-03-22T05:00:56.773Z,8.93
2023-03-22T05:03:59.021Z,9.30
2023-03-22T05:07:01.081Z,9.12
2023-03-22T05:10:03.157Z,9.19
2023-03-22T05:13:05.304Z,9.22
2023-03-22T05:16:08.257Z,9.16
2023-03-22T05:19:16.217Z,9.22
2023-03-22T05:22:19.300Z,9.16
2023-03-22T05:25:21.240Z,9.00
2023-03-22T05:28:23.522Z,9.13
2023-03-22T05:31:28.628Z,9.14
2023-03-22T05:34:35.984Z,9.18
2023-03-22T05:37:38.354Z,9.38
2023-03-22T05:40:43.070Z,9.54
2023-03-22T05:43:45.262Z,9.60
2023-03-22T05:46:47.324Z,9.65
2023-03-22T05:49:49.393Z,9.74
2023-03-22T05:52:53.497Z,9.64
2023-03-22T05:56:00.818Z,9.75
2023-03-22T05:59:04.734Z,9.79
2023-03-22T06:02:06.980Z,9.99
2023-03-22T06:05:11.402Z,10.00
2023-03-22T06:08:13.407Z,10.08
2023-03-22T06:11:15.742Z,10.14
2023-03-22T06:14:17.793Z,10.52
2023-03-22T06:17:22.148Z,10.75
2023-03-22T06:20:25.897Z,10.88
2023-03-22T06:23:32.428Z,10.78
2023-03-22T06:26:34.507Z,11.10
2023-03-22T06:29:50.064Z,11.32
2023-03-22T06:32:55.477Z,11.30
2023-03-22T06:35:59.106Z,12.29
2023-03-22T06:39:05.280Z,11.81
2023-03-22T06:42:07.741Z,11.44
2023-03-22T06:45:12.206Z,11.19
2023-03-22T06:48:15.026Z,11.22
2023-03-22T06:51:17.381Z,11.44
2023-03-22T06:54:20.413Z,11.76
2023-03-22T06:57:22.580Z,12.14
2023-03-22T07:00:24.767Z,12.00
2023-03-22T07:03:29.842Z,11.79
2023-03-22T07:06:35.655Z,12.35
2023-03-22T07:09:41.993Z,12.15
2023-03-22T07:13:23.612Z,12.21
2023-03-22T07:16:35.901Z,12.36
2023-03-22T07:19:49.254Z,12.07
2023-03-22T07:23:13.644Z,12.48
2023-03-22T07:26:34.127Z,12.44
2023-03-22T07:34:19.188Z,12.01
2023-03-22T07:37:27.765Z,12.20
2023-03-22T07:40:33.824Z,12.17
2023-03-22T07:43:54.250Z,12.20
2023-03-22T07:47:00.908Z,12.85
2023-03-22T07:50:06.154Z,12.79
2023-03-22T07:53:09.992Z,13.07
2023-03-22T07:56:15.774Z,12.90
2023-03-22T07:59:18.097Z,13.05
2023-03-22T08:02:35.937Z,13.02
2023-03-22T08:05:43.060Z,13.05
2023-03-22T08:08:46.047Z,13.47
2023-03-22T08:11:48.164Z,13.17
2023-03-22T08:14:53.380Z,13.70
2023-03-22T08:18:00.906Z,13.26
2023-03-22T08:21:04.695Z,13.47
2023-03-22T08:24:07.479Z,13.57
2023-03-22T08:27:09.667Z,13.76
2023-03-22T08:30:12.461Z,13.81
2023-03-22T08:33:15.017Z,13.79
2023-03-22T08:36:20.426Z,13.68
2023-03-22T08:39:23.176Z,13.65
2023-03-22T08:42:26.389Z,14.06
2023-03-22T08:45:56.549Z,14.21
2023-03-22T08:49:20.087Z,14.07
2023-03-22T08:52:28.183Z,13.85
2023-03-22T08:55:44.292Z,14.03
2023-03-22T09:02:26.591Z,13.84
2023-03-22T09:05:42.026Z,14.00
2023-03-22T09:09:02.078Z,13.82
2023-03-22T09:12:16.534Z,14.19
2023-03-22T09:15:18.987Z,14.20
2023-03-22T09:18:23.838Z,13.83
2023-03-22T09:21:28.199Z,14.18
2023-03-22T09:24:33.107Z,14.29
2023-03-22T09:27:36.498Z,14.66
2023-03-22T09:30:39.982Z,14.59
2023-03-22T09:33:45.129Z,14.55
2023-03-22T09:36:47.721Z,14.27
2023-03-22T09:39:53.265Z,14.37
2023-03-22T09:43:07.818Z,14.60
2023-03-22T09:46:20.631Z,14.67
2023-03-22T09:49:28.145Z,15.06
2023-03-22T09:52:32.206Z,15.33
2023-03-22T09:55:41.762Z,15.43
2023-03-22T09:58:58.508Z,15.05
2023-03-22T10:02:28.854Z,14.90
2023-03-22T10:05:58.977Z,15.28
2023-03-22T10:09:19.673Z,14.43
2023-03-22T10:12:30.752Z,14.78
2023-03-22T10:15:56.514Z,14.58
2023-03-22T10:19:24.052Z,14.63
2023-03-22T10:22:45.575Z,14.76
2023-03-22T10:25:48.784Z,14.71
2023-03-22T10:29:04.124Z,14.47
2023-03-22T10:32:33.692Z,14.61
2023-03-22T10:35:37.145Z,14.75
2023-03-22T10:38:48.513Z,14.76
2023-03-22T10:41:58.141Z,14.81
2023-03-22T10:45:09.954Z,14.30
2023-03-22T10:48:25.764Z,14.46
2023-03-22T10:51:44.147Z,14.37
2023-03-22T10:55:07.873Z,14.36
2023-03-22T10:58:17.919Z,14.53
2023-03-22T11:05:24.847Z,13.85
2023-03-22T11:08:58.166Z,14.02
2023-03-22T11:12:53.059Z,14.22
2023-03-22T11:17:13.651Z,13.95
2023-03-22T11:20:05.222Z,13.99
2023-03-22T11:23:26.923Z,13.69
2023-03-22T11:26:41.858Z,13.85
2023-03-22T11:29:54.179Z,14.11
2023-03-22T11:33:02.057Z,14.07
2023-03-22T11:36:21.076Z,14.36
2023-03-22T11:39:31.084Z,14.04
2023-03-22T11:42:36.435Z,13.98
2023-03-22T11:45:43.908Z,14.08
2023-03-22T11:48:51.086Z,14.38
2023-03-22T11:51:56.686Z,14.55
2023-03-22T11:55:02.459Z,14.53
2023-03-22T11:58:20.354Z,14.59
2023-03-22T12:01:44.479Z,14.27
2023-03-22T12:08:45.745Z,14.27
2023-03-22T12:11:52.364Z,14.54
2023-03-22T12:15:05.347Z,14.63
2023-03-22T12:18:16.932Z,14.55
2023-03-22T12:21:19.883Z,14.77
2023-03-22T12:24:35.506Z,15.36
2023-03-22T12:27:46.472Z,15.66
2023-03-22T12:30:59.519Z,15.54
2023-03-22T12:34:14.558Z,16.01
2023-03-22T12:37:27.204Z,16.10
2023-03-22T12:40:34.997Z,16.04
2023-03-22T12:43:53.732Z,15.68
2023-03-22T12:47:07.857Z,15.27
2023-03-22T12:50:18.481Z,15.44
2023-03-22T12:53:23.473Z,15.82
2023-03-22T12:56:35.086Z,15.92
2023-03-22T12:59:38.086Z,15.88
2023-03-22T13:02:52.190Z,15.82
2023-03-22T13:11:00.649Z,16.33
2023-03-22T13:14:02.934Z,16.21
2023-03-22T13:17:22.782Z,16.70
2023-03-22T13:20:41.354Z,16.61
2023-03-22T13:24:02.632Z,16.74
2023-03-22T13:27:12.846Z,16.30
2023-03-22T13:30:23.227Z,16.75
2023-03-22T13:33:39.443Z,16.58
2023-03-22T13:36:50.013Z,16.91
2023-03-22T13:39:52.380Z,16.90
2023-03-22T13:42:54.728Z,16.87
2023-03-22T13:46:12.312Z,16.58
2023-03-22T13:49:20.958Z,16.78
2023-03-22T13:52:27.941Z,17.10
2023-03-22T13:55:48.760Z,17.35
2023-03-22T13:58:53.190Z,17.36
2023-03-22T14:02:11.064Z,17.14
2023-03-22T14:05:18.667Z,16.93
2023-03-22T14:08:34.258Z,16.62
2023-03-22T14:11:49.673Z,16.90
2023-03-22T14:15:07.410Z,16.75
2023-03-22T14:18:25.353Z,17.12
2023-03-22T14:21:38.783Z,16.80
